»·PEaware :: AXX730 KLAX-KDEN

AXX730 :: KLAX-KDEN

FLIGHT INFORMATION

Flight Status: Arrived
Operator: Unknown
More flights by this operator :: More flights under this callsign
Pilot: Roberto S. (15982)
Aircraft: BOMBARDIER BD-100 CHALLENGER 300
(CL30)
More flights by this aircraft type
Origin: KLAX Los Angeles Intl
United States
Destination: KDEN Denver Intl
United States
More flights between these airports :: More routes between these airports
Route: +ORCKA2 LAS J146 DVC WOLLF TELLR2
File this flight plan on PilotEdge
Remarks: AXX= Alliance
Altitude:
(Current/Filed)
41,000ft
Speed:
(Current/Filed)
475kts
Departed: 13-May-18 09:09 AM
Arrived: 13-May-18 11:00 AM
Distance/Time
Traveled:
747nm/1:51
Distance/Time
To Go:
Arrived

Flight Plot

Page will automatically refresh every two minutes.

Flight plan parsing failed; only flown route is shown


Map Options




Map Legend


Flown Route
Filed Route
Departure Airport
Arrival Airport
Navaid (VOR, NDB)
Fix

Horizontal Profiles

Position Reports

Time Latitude Longitude Heading Altitude Ground
Speed
13-May-18 08:17 33.932683 -118.399156 21 132ft 0kts
13-May-18 08:18 33.932683 -118.399156 21 132ft 0kts
13-May-18 08:19 33.932683 -118.399156 21 132ft 0kts
13-May-18 08:20 33.932683 -118.399156 21 132ft 0kts
13-May-18 08:21 33.932683 -118.399156 21 132ft 0kts
13-May-18 08:22 33.932683 -118.399156 21 132ft 0kts
13-May-18 08:23 33.932683 -118.399156 21 132ft 0kts
13-May-18 08:24 33.932683 -118.399156 21 132ft 0kts
13-May-18 08:25 33.932683 -118.399156 21 132ft 0kts
13-May-18 08:26 33.932683 -118.399156 21 132ft 0kts
13-May-18 08:27 33.932683 -118.399156 21 132ft 0kts
13-May-18 08:28 33.932683 -118.399156 21 132ft 0kts
13-May-18 08:29 33.932683 -118.399156 21 132ft 0kts
13-May-18 08:30 33.932683 -118.399156 21 132ft 0kts
13-May-18 08:31 33.932683 -118.399156 21 132ft 0kts
13-May-18 08:32 33.932683 -118.399156 21 132ft 0kts
13-May-18 08:33 33.932683 -118.399156 21 132ft 0kts
13-May-18 08:34 33.932683 -118.399156 21 132ft 0kts
13-May-18 08:35 33.932683 -118.399156 21 132ft 0kts
13-May-18 08:36 33.932683 -118.399156 21 132ft 0kts
13-May-18 08:37 33.932683 -118.399156 21 132ft 0kts
13-May-18 08:38 33.932683 -118.399156 21 132ft 0kts
13-May-18 08:39 33.932683 -118.399156 21 132ft 0kts
13-May-18 08:40 33.932683 -118.399156 21 132ft 0kts
13-May-18 08:41 33.932683 -118.399156 21 132ft 0kts
13-May-18 08:42 33.932683 -118.399156 21 132ft 0kts
13-May-18 08:43 33.932683 -118.399156 21 132ft 0kts
13-May-18 08:44 33.932683 -118.399156 21 132ft 0kts
13-May-18 08:45 33.932683 -118.399156 21 132ft 0kts
13-May-18 08:46 33.932683 -118.399156 21 132ft 0kts
13-May-18 08:47 33.932683 -118.399156 21 132ft 0kts
13-May-18 08:48 33.932683 -118.399156 21 132ft 0kts
13-May-18 08:49 33.932683 -118.399156 21 132ft 0kts
13-May-18 08:50 33.932683 -118.399156 21 132ft 0kts
13-May-18 08:51 33.932683 -118.399156 21 132ft 0kts
13-May-18 08:52 33.932683 -118.399156 21 132ft 0kts
13-May-18 08:53 33.932683 -118.399156 21 132ft 0kts
13-May-18 08:54 33.932683 -118.399156 21 132ft 0kts
13-May-18 08:55 33.932683 -118.399156 21 132ft 0kts
13-May-18 08:56 33.932683 -118.399156 21 132ft 0kts
13-May-18 08:57 33.932683 -118.399156 21 132ft 0kts
13-May-18 08:58 33.932683 -118.399156 21 132ft 0kts
13-May-18 08:59 33.932683 -118.399156 21 132ft 0kts
13-May-18 09:00 33.932683 -118.399156 21 132ft 0kts
13-May-18 09:01 33.932683 -118.399156 21 132ft 0kts
13-May-18 09:02 33.934062 -118.398107 15 132ft 6kts
13-May-18 09:03 33.934952 -118.394273 82 132ft 15kts
13-May-18 09:04 33.935535 -118.388585 82 132ft 17kts
13-May-18 09:05 33.935934 -118.384749 83 132ft 12kts
13-May-18 09:06 33.936426 -118.382780 357 132ft 0kts
13-May-18 09:07 33.936427 -118.382780 357 132ft 0kts
13-May-18 09:08 33.937270 -118.383394 259 132ft 7kts
13-May-18 09:09 33.932459 -118.426607 262 1774ft 183kts
13-May-18 09:10 33.918970 -118.483257 199 3228ft 191kts
13-May-18 09:11 33.910343 -118.442422 21 3449ft 190kts
13-May-18 09:12 33.941118 -118.450233 240 3127ft 186kts
13-May-18 09:13 33.933922 -118.513308 262 4977ft 188kts
13-May-18 09:14 33.924736 -118.576027 249 8862ft 193kts
13-May-18 09:15 33.888760 -118.554883 68 12531ft 232kts
13-May-18 09:16 33.918697 -118.485306 55 15959ft 246kts
13-May-18 09:17 33.953159 -118.412653 54 19021ft 262kts
13-May-18 09:18 33.990970 -118.335621 53 21368ft 298kts
13-May-18 09:19 34.037785 -118.248176 49 23113ft 316kts
13-May-18 09:20 34.087841 -118.159352 50 24400ft 326kts
13-May-18 09:21 34.139784 -118.067143 49 26937ft 342kts
13-May-18 09:22 34.194205 -117.970334 49 28977ft 367kts
13-May-18 09:23 34.254621 -117.863100 50 30649ft 398kts
13-May-18 09:24 34.318092 -117.750585 51 32539ft 415kts
13-May-18 09:25 34.384679 -117.635401 49 34251ft 428kts
13-May-18 09:26 34.454897 -117.517397 49 35903ft 439kts
13-May-18 09:27 34.526140 -117.397474 48 37721ft 439kts
13-May-18 09:28 34.597151 -117.277672 49 39361ft 439kts
13-May-18 09:29 34.670895 -117.152914 49 39647ft 476kts
13-May-18 09:30 34.749459 -117.019423 50 40575ft 494kts
13-May-18 09:31 34.829339 -116.883226 52 41026ft 499kts
13-May-18 09:32 34.913180 -116.741637 49 41028ft 530kts
13-May-18 09:33 35.009537 -116.610700 44 41023ft 510kts
13-May-18 09:34 35.104422 -116.484937 44 41032ft 505kts
13-May-18 09:35 35.199343 -116.359091 44 41031ft 506kts
13-May-18 09:36 35.294406 -116.232633 44 41032ft 506kts
13-May-18 09:37 35.389307 -116.105943 44 41034ft 506kts
13-May-18 09:38 35.484134 -115.978888 44 41036ft 506kts
13-May-18 09:39 35.578271 -115.852840 44 41020ft 506kts
13-May-18 09:40 35.672549 -115.724672 45 41007ft 506kts
13-May-18 09:41 35.766102 -115.595544 45 41005ft 507kts
13-May-18 09:42 35.859433 -115.466520 45 41010ft 506kts
13-May-18 09:43 35.952703 -115.337171 46 40997ft 507kts
13-May-18 09:44 36.045961 -115.207305 45 41000ft 506kts
13-May-18 09:45 36.112453 -115.051071 70 40988ft 533kts
13-May-18 09:46 36.166693 -114.877219 72 40974ft 548kts
13-May-18 09:47 36.220502 -114.704086 72 40979ft 543kts
13-May-18 09:48 36.273911 -114.528995 72 40982ft 544kts
13-May-18 09:49 36.327001 -114.353704 72 40987ft 544kts
13-May-18 09:50 36.379687 -114.178509 72 40995ft 544kts
13-May-18 09:51 36.432274 -114.002618 72 41019ft 544kts
13-May-18 09:52 36.484709 -113.827438 72 41008ft 543kts
13-May-18 09:53 36.537059 -113.651520 73 41013ft 544kts
13-May-18 09:54 36.588632 -113.475942 73 41008ft 543kts
13-May-18 09:55 36.640047 -113.299566 73 41072ft 543kts
13-May-18 09:56 36.691166 -113.123067 73 41091ft 543kts
13-May-18 09:57 36.742088 -112.946217 73 41096ft 539kts
13-May-18 09:58 36.792128 -112.773372 74 41083ft 525kts
13-May-18 09:59 36.841075 -112.601794 75 41087ft 527kts
13-May-18 10:00 36.889774 -112.429415 75 41089ft 527kts
13-May-18 10:01 36.938058 -112.257307 75 41086ft 527kts
13-May-18 10:02 36.975528 -112.122995 75 41067ft 527kts
13-May-18 10:03 37.012324 -111.990462 75 41072ft 528kts
13-May-18 10:04 37.060072 -111.818993 76 41043ft 528kts
13-May-18 10:05 37.107795 -111.646340 77 41045ft 527kts
13-May-18 10:06 37.154529 -111.474753 76 41047ft 521kts
13-May-18 10:07 37.201085 -111.302861 76 41050ft 522kts
13-May-18 10:08 37.247324 -111.130868 76 41053ft 522kts
13-May-18 10:09 37.293548 -110.957971 77 41056ft 524kts
13-May-18 10:10 37.340135 -110.784403 78 41048ft 524kts
13-May-18 10:11 37.385913 -110.611589 78 41056ft 524kts
13-May-18 10:12 37.431065 -110.439221 78 41150ft 524kts
13-May-18 10:13 37.476330 -110.265080 78 41182ft 524kts
13-May-18 10:14 37.520808 -110.092806 78 41197ft 523kts
13-May-18 10:15 37.565504 -109.918483 78 41181ft 524kts
13-May-18 10:16 37.610502 -109.744413 79 41172ft 523kts
13-May-18 10:17 37.654653 -109.570478 79 41174ft 523kts
13-May-18 10:18 37.698544 -109.395811 79 41178ft 522kts
13-May-18 10:19 37.742192 -109.220724 79 41180ft 523kts
13-May-18 10:20 37.785160 -109.047026 78 41178ft 517kts
13-May-18 10:21 37.839290 -108.879171 65 41145ft 522kts
13-May-18 10:22 37.912343 -108.721933 62 41118ft 524kts
13-May-18 10:23 37.988323 -108.564574 62 41117ft 524kts
13-May-18 10:24 38.064195 -108.407737 62 41141ft 524kts
13-May-18 10:25 38.140200 -108.250029 62 41182ft 524kts
13-May-18 10:26 38.215962 -108.092071 62 41125ft 524kts
13-May-18 10:27 38.291248 -107.934346 62 41073ft 524kts
13-May-18 10:28 38.366985 -107.776417 62 41067ft 523kts
13-May-18 10:29 38.441945 -107.618334 62 41070ft 523kts
13-May-18 10:30 38.513810 -107.457315 64 41086ft 523kts
13-May-18 10:31 38.586055 -107.295533 64 39882ft 533kts
13-May-18 10:32 38.659614 -107.130353 64 38074ft 537kts
13-May-18 10:33 38.732926 -106.964921 63 36281ft 532kts
13-May-18 10:34 38.791702 -106.832774 63 34723ft 491kts
13-May-18 10:35 38.856640 -106.685971 64 32888ft 472kts
13-May-18 10:36 38.923463 -106.539677 62 30884ft 478kts
13-May-18 10:37 38.990841 -106.393396 62 28886ft 473kts
13-May-18 10:38 39.056072 -106.249772 61 26891ft 460kts
13-May-18 10:39 39.119493 -106.108763 61 24931ft 449kts
13-May-18 10:40 39.180033 -105.971511 61 22954ft 435kts
13-May-18 10:41 39.238617 -105.839351 61 20969ft 419kts
13-May-18 10:42 39.295001 -105.711810 61 18966ft 401kts
13-May-18 10:43 39.356947 -105.569878 60 17108ft 378kts
13-May-18 10:44 39.392991 -105.475070 84 17049ft 339kts
13-May-18 10:45 39.400020 -105.353521 87 16332ft 343kts
13-May-18 10:46 39.405947 -105.230771 87 14521ft 330kts
13-May-18 10:47 39.411160 -105.117331 87 13021ft 310kts
13-May-18 10:48 39.416094 -105.006154 87 13001ft 314kts
13-May-18 10:49 39.419394 -104.893935 110 12992ft 310kts
13-May-18 10:50 39.375980 -104.806034 113 13055ft 262kts
13-May-18 10:51 39.390574 -104.713230 56 12503ft 270kts
13-May-18 10:52 39.454611 -104.674826 4 12007ft 262kts
13-May-18 10:53 39.527565 -104.668144 0 11460ft 268kts
13-May-18 10:54 39.597223 -104.665123 0 10047ft 233kts
13-May-18 10:55 39.655746 -104.663160 1 8878ft 195kts
13-May-18 10:56 39.704418 -104.662171 0 7878ft 157kts
13-May-18 10:57 39.743963 -104.661599 0 7108ft 140kts
13-May-18 10:58 39.782500 -104.661084 0 6367ft 138kts
13-May-18 10:59 39.820937 -104.660555 359 5652ft 144kts
13-May-18 11:00 39.850222 -104.660386 355 5438ft 34kts
13-May-18 11:01 39.852599 -104.661324 330 5438ft 0kts
13-May-18 11:02 39.851813 -104.662435 181 5438ft 3kts
13-May-18 11:03 39.848315 -104.662457 181 5438ft 10kts
13-May-18 11:04 39.843798 -104.662539 180 5438ft 15kts
13-May-18 11:05 39.840194 -104.663335 257 5438ft 4kts
13-May-18 11:06 39.839253 -104.663798 179 5438ft 0kts
13-May-18 11:07 39.839253 -104.663798 179 5438ft 0kts
13-May-18 11:08 39.839253 -104.663798 179 5438ft 0kts
13-May-18 11:09 39.839253 -104.663798 179 5438ft 0kts
13-May-18 11:10 39.839253 -104.663798 179 5438ft 0kts

Navigation Log

Ident Type
Flight plan parsing failed, navigation log unavailable